createdAt,value
2023-02-14T00:00:25.104Z,12.37
2023-02-14T00:05:30.260Z,12.17
2023-02-14T00:10:35.233Z,12.50
2023-02-14T00:15:42.924Z,10.63
2023-02-14T00:20:47.893Z,11.77
2023-02-14T00:25:53.052Z,11.00
2023-02-14T00:31:04.129Z,12.53
2023-02-14T00:36:10.506Z,11.97
2023-02-14T00:41:19.347Z,10.43
2023-02-14T00:46:27.741Z,11.53
2023-02-14T00:51:33.938Z,12.23
2023-02-14T00:56:40.620Z,12.70
2023-02-14T01:01:50.398Z,12.67
2023-02-14T01:06:55.346Z,11.83
2023-02-14T01:12:00.295Z,12.93
2023-02-14T01:17:07.854Z,12.27
2023-02-14T01:22:12.880Z,10.73
2023-02-14T01:27:17.726Z,12.40
2023-02-14T01:32:27.625Z,12.20
2023-02-14T01:37:33.295Z,10.93
2023-02-14T01:42:39.416Z,14.70
2023-02-14T01:47:49.619Z,15.43
2023-02-14T01:52:58.330Z,12.27
2023-02-14T01:58:07.435Z,12.03
2023-02-14T02:03:16.693Z,12.23
2023-02-14T02:08:21.754Z,11.63
2023-02-14T02:13:26.932Z,10.90
2023-02-14T02:18:51.383Z,8.60
2023-02-14T02:24:18.121Z,14.00
2023-02-14T02:29:48.725Z,8.70
2023-02-14T02:35:18.627Z,9.93
2023-02-14T02:40:31.773Z,9.30
2023-02-14T02:46:01.502Z,10.23
2023-02-14T02:51:29.555Z,9.73
2023-02-14T02:56:49.985Z,11.47
2023-02-14T03:02:03.086Z,11.63
2023-02-14T03:07:23.160Z,10.37
2023-02-14T03:12:51.890Z,11.33
2023-02-14T03:18:04.957Z,12.60
2023-02-14T03:23:21.721Z,13.03
2023-02-14T03:28:35.961Z,13.93
2023-02-14T03:33:48.914Z,13.63
2023-02-14T03:39:01.737Z,10.43
2023-02-14T03:44:11.536Z,11.53
2023-02-14T03:49:20.978Z,13.57
2023-02-14T03:54:30.238Z,21.90
2023-02-14T03:59:35.322Z,12.10
2023-02-14T04:04:44.217Z,14.07
2023-02-14T04:09:52.542Z,10.77
2023-02-14T04:14:57.630Z,13.63
2023-02-14T04:20:02.750Z,14.33
2023-02-14T04:25:10.774Z,15.57
2023-02-14T04:30:18.237Z,14.40
2023-02-14T04:35:24.789Z,16.33
2023-02-14T04:40:32.650Z,13.47
2023-02-14T04:45:37.694Z,16.10
2023-02-14T04:50:43.070Z,15.67
2023-02-14T04:55:51.794Z,15.57
2023-02-14T05:00:56.755Z,19.30
2023-02-14T05:06:01.807Z,13.53
2023-02-14T05:11:09.587Z,14.23
2023-02-14T05:16:15.800Z,16.63
2023-02-14T05:21:21.198Z,19.17
2023-02-14T05:26:31.187Z,18.20
2023-02-14T05:31:37.813Z,20.13
2023-02-14T05:36:42.898Z,15.83
2023-02-14T05:41:50.756Z,15.63
2023-02-14T05:46:55.815Z,17.90
2023-02-14T05:52:00.772Z,16.70
2023-02-14T05:57:08.348Z,19.17
2023-02-14T06:02:14.341Z,18.70
2023-02-14T06:07:19.670Z,23.20
2023-02-14T06:12:27.502Z,22.53
2023-02-14T06:17:33.457Z,21.20
2023-02-14T06:22:39.303Z,16.97
2023-02-14T06:28:11.210Z,14.40
2023-02-14T06:33:53.166Z,19.43
2023-02-14T06:39:02.355Z,20.50
2023-02-14T06:44:10.576Z,19.97
2023-02-14T06:49:17.219Z,12.83
2023-02-14T06:54:22.453Z,17.10
2023-02-14T06:59:30.486Z,21.30
2023-02-14T07:04:37.112Z,15.97
2023-02-14T07:09:42.385Z,20.37
2023-02-14T07:14:49.956Z,18.47
2023-02-14T07:19:55.028Z,17.17
2023-02-14T07:25:00.009Z,20.10
2023-02-14T07:30:09.175Z,26.50
2023-02-14T07:35:15.347Z,26.00
2023-02-14T07:40:25.363Z,20.30
2023-02-14T07:45:33.589Z,17.40
2023-02-14T07:50:38.529Z,21.93
2023-02-14T07:55:43.857Z,25.20
2023-02-14T08:00:51.722Z,23.23
2023-02-14T08:05:59.810Z,19.87
2023-02-14T08:11:05.041Z,19.87
2023-02-14T08:16:12.803Z,22.13
2023-02-14T08:21:17.943Z,18.40
2023-02-14T08:26:23.016Z,22.03
2023-02-14T08:31:36.119Z,24.37
2023-02-14T08:36:43.846Z,19.77
2023-02-14T08:41:51.134Z,26.60
2023-02-14T08:46:58.866Z,25.40
2023-02-14T08:52:04.094Z,27.03
2023-02-14T08:57:10.543Z,28.43
2023-02-14T09:02:19.149Z,25.57
2023-02-14T09:07:32.181Z,24.67
2023-02-14T09:12:37.337Z,24.23
2023-02-14T09:17:51.256Z,27.77
2023-02-14T09:22:59.263Z,23.23
2023-02-14T09:28:05.766Z,28.53
2023-02-14T09:33:17.893Z,26.83
2023-02-14T09:38:22.899Z,25.07
2023-02-14T09:43:37.068Z,24.30
2023-02-14T09:48:49.386Z,29.90
2023-02-14T09:54:03.058Z,27.50
2023-02-14T09:59:18.879Z,25.93
2023-02-14T10:04:35.227Z,27.83
2023-02-14T10:09:58.244Z,24.50
2023-02-14T10:15:07.663Z,21.83
2023-02-14T10:20:27.688Z,20.50
2023-02-14T10:26:00.471Z,21.53
2023-02-14T10:31:22.103Z,21.23
2023-02-14T10:36:47.132Z,26.03
2023-02-14T10:42:07.362Z,23.87
2023-02-14T10:47:37.250Z,22.83
2023-02-14T10:52:59.162Z,24.70
2023-02-14T10:58:12.494Z,25.07
2023-02-14T11:03:18.137Z,24.77
2023-02-14T11:08:29.810Z,25.57
2023-02-14T11:13:37.781Z,19.60
2023-02-14T11:18:43.899Z,19.17
2023-02-14T11:23:54.128Z,17.83
2023-02-14T11:29:02.354Z,24.40
2023-02-14T11:34:29.112Z,22.33
2023-02-14T11:39:38.343Z,23.63
2023-02-14T11:45:01.595Z,28.57
2023-02-14T11:50:13.606Z,23.23
2023-02-14T11:55:33.932Z,19.37
2023-02-14T12:00:43.997Z,21.37
2023-02-14T12:05:57.417Z,17.97
2023-02-14T12:11:21.000Z,17.47
2023-02-14T12:16:43.022Z,20.10
2023-02-14T12:21:56.361Z,19.30
2023-02-14T12:27:23.087Z,22.17
2023-02-14T12:32:30.685Z,15.37
2023-02-14T12:38:02.775Z,17.40
2023-02-14T12:43:43.290Z,18.30
2023-02-14T12:49:08.485Z,18.50
2023-02-14T12:54:37.298Z,18.80
2023-02-14T12:59:50.411Z,13.87
2023-02-14T13:05:05.126Z,17.00
2023-02-14T13:10:22.370Z,15.47
2023-02-14T13:15:40.173Z,13.07
2023-02-14T13:20:53.123Z,14.60
2023-02-14T13:26:03.470Z,14.33
2023-02-14T13:31:13.227Z,15.23
2023-02-14T13:36:22.708Z,15.40
2023-02-14T13:41:33.550Z,14.63
2023-02-14T13:47:06.506Z,15.17
2023-02-14T13:52:13.039Z,13.30
2023-02-14T13:57:37.232Z,14.07
2023-02-14T14:02:53.430Z,17.53
2023-02-14T14:08:38.115Z,15.97
2023-02-14T14:13:59.334Z,16.07
2023-02-14T14:19:14.454Z,18.17
2023-02-14T14:24:25.919Z,14.43
2023-02-14T14:29:34.741Z,18.40
2023-02-14T14:34:55.675Z,20.67
2023-02-14T14:40:02.943Z,18.77
2023-02-14T14:45:13.742Z,19.47
2023-02-14T14:50:25.415Z,25.03
2023-02-14T14:55:34.085Z,25.93
2023-02-14T15:00:42.648Z,24.77
2023-02-14T15:05:53.931Z,24.27
2023-02-14T15:11:03.093Z,26.03
2023-02-14T15:16:08.821Z,28.80
2023-02-14T15:21:18.390Z,28.70
2023-02-14T15:26:33.184Z,36.13
2023-02-14T15:31:42.486Z,29.37
2023-02-14T15:36:54.320Z,26.40
2023-02-14T15:41:59.470Z,31.43
2023-02-14T15:47:08.608Z,35.17
2023-02-14T15:52:17.505Z,35.90
2023-02-14T15:57:27.402Z,28.83
2023-02-14T16:02:37.894Z,27.30
2023-02-14T16:07:59.503Z,31.33
2023-02-14T16:13:06.721Z,36.23
2023-02-14T16:18:21.948Z,34.50
2023-02-14T16:23:33.311Z,36.10
2023-02-14T16:28:41.090Z,37.70
2023-02-14T16:33:47.540Z,32.03
2023-02-14T16:38:56.416Z,35.50
2023-02-14T16:44:01.396Z,40.13
2023-02-14T16:49:06.692Z,41.23
2023-02-14T16:54:18.356Z,41.97
2023-02-14T16:59:23.513Z,36.87
2023-02-14T17:04:29.356Z,37.77
2023-02-14T17:09:43.061Z,40.03
2023-02-14T17:14:52.604Z,40.60
2023-02-14T17:19:57.528Z,41.73
2023-02-14T17:25:05.424Z,38.10
2023-02-14T17:30:14.407Z,45.70
2023-02-14T17:35:21.417Z,40.27
2023-02-14T17:40:30.577Z,40.27
2023-02-14T17:45:35.618Z,40.40
2023-02-14T17:50:40.657Z,42.87
2023-02-14T17:55:48.346Z,45.07
2023-02-14T18:00:53.335Z,44.87
2023-02-14T18:06:02.769Z,50.17
2023-02-14T18:11:11.934Z,44.87
2023-02-14T18:16:19.128Z,46.93
2023-02-14T18:21:24.729Z,45.80
2023-02-14T18:26:33.788Z,55.90
2023-02-14T18:31:42.904Z,55.57
2023-02-14T18:36:48.365Z,48.70
2023-02-14T18:42:00.070Z,52.23
2023-02-14T18:47:12.611Z,49.77
2023-02-14T18:52:18.165Z,49.87
2023-02-14T18:57:25.976Z,56.63
2023-02-14T19:02:32.827Z,58.40
2023-02-14T19:07:38.675Z,51.93
2023-02-14T19:12:46.498Z,58.67
2023-02-14T19:17:53.097Z,54.53
2023-02-14T19:22:58.203Z,65.27
2023-02-14T19:28:06.720Z,61.83
2023-02-14T19:33:14.489Z,64.03
2023-02-14T19:38:20.301Z,72.50
2023-02-14T19:43:29.112Z,65.20
2023-02-14T19:48:37.276Z,69.77
2023-02-14T19:53:45.408Z,63.70
2023-02-14T19:58:54.854Z,68.87
2023-02-14T20:04:01.853Z,64.63
2023-02-14T20:09:12.943Z,67.30
2023-02-14T20:14:24.369Z,70.87
2023-02-14T20:19:35.410Z,69.87
2023-02-14T20:24:45.093Z,71.90
2023-02-14T20:29:55.550Z,75.57
2023-02-14T20:35:11.310Z,77.40
2023-02-14T20:40:18.201Z,77.57
2023-02-14T20:45:26.590Z,77.67
2023-02-14T20:50:36.056Z,77.67
2023-02-14T20:55:44.962Z,78.20
2023-02-14T21:00:54.982Z,85.50
2023-02-14T21:06:03.024Z,88.50
2023-02-14T21:11:10.996Z,82.27
2023-02-14T21:16:20.926Z,85.57
2023-02-14T21:21:32.482Z,82.27
2023-02-14T21:26:37.975Z,77.90
2023-02-14T21:31:47.403Z,79.27
2023-02-14T21:36:56.386Z,80.03
2023-02-14T21:42:02.180Z,81.43
2023-02-14T21:47:10.027Z,79.97
2023-02-14T21:52:15.253Z,87.07
2023-02-14T21:57:20.172Z,82.47
2023-02-14T22:02:27.836Z,84.20
2023-02-14T22:07:34.841Z,76.73
2023-02-14T22:12:42.435Z,81.07
2023-02-14T22:17:51.025Z,85.73
2023-02-14T22:22:55.992Z,77.30
2023-02-14T22:28:01.372Z,75.80
2023-02-14T22:33:08.981Z,87.93
2023-02-14T22:38:14.964Z,81.60
2023-02-14T22:43:22.179Z,89.60
2023-02-14T22:48:34.796Z,83.23
2023-02-14T22:53:40.189Z,84.60
2023-02-14T22:58:50.623Z,86.30
2023-02-14T23:04:03.711Z,87.17
2023-02-14T23:09:10.936Z,73.10
2023-02-14T23:14:29.451Z,79.80
2023-02-14T23:19:50.793Z,73.07
2023-02-14T23:24:57.361Z,71.00
2023-02-14T23:30:04.040Z,75.73
2023-02-14T23:35:15.063Z,77.23
2023-02-14T23:40:20.482Z,74.50
2023-02-14T23:45:38.883Z,73.43
2023-02-14T23:50:46.798Z,72.03
2023-02-14T23:55:51.831Z,71.23
